createdAt,value
2018-06-16T00:02:17.609Z,4.23
2018-06-16T00:04:44.490Z,3.10
2018-06-16T00:07:10.989Z,4.03
2018-06-16T00:09:37.474Z,4.10
2018-06-16T00:12:04.458Z,3.50
2018-06-16T00:14:30.943Z,3.53
2018-06-16T00:16:57.426Z,3.33
2018-06-16T00:19:23.903Z,3.47
2018-06-16T00:21:50.500Z,3.25
2018-06-16T00:24:17.052Z,3.40
2018-06-16T00:26:44.128Z,3.50
2018-06-16T00:29:10.605Z,3.55
2018-06-16T00:31:37.084Z,3.43
2018-06-16T00:34:03.616Z,3.90
2018-06-16T00:36:30.096Z,3.53
2018-06-16T00:38:56.573Z,3.40
2018-06-16T00:41:23.843Z,3.37
2018-06-16T00:43:50.408Z,3.20
2018-06-16T00:46:16.919Z,3.77
2018-06-16T00:48:43.379Z,3.50
2018-06-16T00:51:10.967Z,3.50
2018-06-16T00:53:37.515Z,3.40
2018-06-16T00:56:04.015Z,3.50
2018-06-16T00:58:30.509Z,3.60
2018-06-16T01:00:57.007Z,3.40
2018-06-16T01:03:23.499Z,3.42
2018-06-16T01:05:49.968Z,3.47
2018-06-16T01:08:16.429Z,3.03
2018-06-16T01:10:42.917Z,3.57
2018-06-16T01:13:09.395Z,3.47
2018-06-16T01:15:35.867Z,3.10
2018-06-16T01:18:02.332Z,3.70
2018-06-16T01:20:28.832Z,3.30
2018-06-16T01:22:55.343Z,3.17
2018-06-16T01:25:21.897Z,3.40
2018-06-16T01:27:48.365Z,3.30
2018-06-16T01:30:14.827Z,3.33
2018-06-16T01:32:41.411Z,3.45
2018-06-16T01:35:07.925Z,3.27
2018-06-16T01:37:34.492Z,3.13
2018-06-16T01:40:00.969Z,3.23
2018-06-16T01:42:27.471Z,3.30
2018-06-16T01:44:53.943Z,3.33
2018-06-16T01:47:20.975Z,4.07
2018-06-16T01:49:47.467Z,3.42
2018-06-16T01:52:14.093Z,3.40
2018-06-16T01:54:40.775Z,3.30
2018-06-16T01:57:07.256Z,3.63
2018-06-16T01:59:33.743Z,3.63
2018-06-16T02:02:00.356Z,3.73
2018-06-16T02:04:26.818Z,2.97
2018-06-16T02:06:54.453Z,3.10
2018-06-16T02:09:20.925Z,3.70
2018-06-16T02:11:47.398Z,3.20
2018-06-16T02:14:13.887Z,3.60
2018-06-16T02:16:40.397Z,3.50
2018-06-16T02:19:07.279Z,3.53
2018-06-16T02:21:33.879Z,3.70
2018-06-16T02:24:00.369Z,3.60
2018-06-16T02:26:26.836Z,3.20
2018-06-16T02:28:53.546Z,3.20
2018-06-16T02:31:20.028Z,3.17
2018-06-16T02:33:46.497Z,3.40
2018-06-16T02:36:12.975Z,3.53
2018-06-16T02:38:39.581Z,3.80
2018-06-16T02:41:06.065Z,3.70
2018-06-16T02:43:33.063Z,3.33
2018-06-16T02:45:59.517Z,3.67
2018-06-16T02:48:25.969Z,3.53
2018-06-16T02:50:52.461Z,3.10
2018-06-16T02:53:19.406Z,3.80
2018-06-16T02:55:45.925Z,3.33
2018-06-16T02:58:12.409Z,3.10
2018-06-16T03:00:38.977Z,3.20
2018-06-16T03:03:05.435Z,3.43
2018-06-16T03:05:32.037Z,3.27
2018-06-16T03:07:58.576Z,3.43
2018-06-16T03:10:25.045Z,3.67
2018-06-16T03:12:51.517Z,3.60
2018-06-16T03:15:18.125Z,3.70
2018-06-16T03:17:44.623Z,3.73
2018-06-16T03:20:11.110Z,3.30
2018-06-16T03:22:40.705Z,3.30
2018-06-16T03:25:07.148Z,3.10
2018-06-16T03:27:33.611Z,3.10
2018-06-16T03:30:00.607Z,3.27
2018-06-16T03:32:27.058Z,3.30
2018-06-16T03:34:53.653Z,3.35
2018-06-16T03:37:20.140Z,3.10
2018-06-16T03:39:46.651Z,3.10
2018-06-16T03:42:13.119Z,3.50
2018-06-16T03:44:39.933Z,3.23
2018-06-16T03:47:06.486Z,3.10
2018-06-16T03:49:32.952Z,3.13
2018-06-16T03:51:59.438Z,2.72
2018-06-16T03:54:26.017Z,3.43
2018-06-16T03:56:52.573Z,3.10
2018-06-16T03:59:19.038Z,3.37
2018-06-16T04:01:45.533Z,3.30
2018-06-16T04:04:11.999Z,3.05
2018-06-16T04:06:38.487Z,3.43
2018-06-16T04:09:05.568Z,3.13
2018-06-16T04:11:32.036Z,3.60
2018-06-16T04:13:59.004Z,3.33
2018-06-16T04:16:25.559Z,3.35
2018-06-16T04:18:52.035Z,3.30
2018-06-16T04:21:18.550Z,4.00
2018-06-16T04:23:45.668Z,2.83
2018-06-16T04:26:12.174Z,3.13
2018-06-16T04:28:38.724Z,3.30
2018-06-16T04:31:05.202Z,3.13
2018-06-16T04:33:31.714Z,2.90
2018-06-16T04:35:58.180Z,3.00
2018-06-16T04:38:25.210Z,3.23
2018-06-16T04:40:52.178Z,3.07
2018-06-16T04:43:18.678Z,3.03
2018-06-16T04:45:45.780Z,3.07
2018-06-16T04:48:12.172Z,3.00
2018-06-16T04:50:38.704Z,2.90
2018-06-16T04:53:05.430Z,3.27
2018-06-16T04:55:31.911Z,3.50
2018-06-16T04:57:58.384Z,3.40
2018-06-16T05:00:24.917Z,3.33
2018-06-16T05:02:51.393Z,3.30
2018-06-16T05:05:17.934Z,3.30
2018-06-16T05:07:44.390Z,3.25
2018-06-16T05:10:10.982Z,3.50
2018-06-16T05:12:38.343Z,3.17
2018-06-16T05:15:05.026Z,3.13
2018-06-16T05:17:31.497Z,3.20
2018-06-16T05:20:04.097Z,3.42
2018-06-16T05:22:31.575Z,3.63
2018-06-16T05:24:58.358Z,3.37
2018-06-16T05:27:25.405Z,3.50
2018-06-16T05:29:52.165Z,3.17
2018-06-16T05:32:19.506Z,3.20
2018-06-16T05:34:46.661Z,3.13
2018-06-16T05:37:13.673Z,3.50
2018-06-16T05:39:40.136Z,3.17
2018-06-16T05:42:06.621Z,3.23
2018-06-16T05:44:33.108Z,3.87
2018-06-16T05:46:59.592Z,3.23
2018-06-16T05:49:26.137Z,2.93
2018-06-16T05:51:52.703Z,3.43
2018-06-16T05:54:20.168Z,4.03
2018-06-16T05:56:46.682Z,3.37
2018-06-16T05:59:13.196Z,3.80
2018-06-16T06:01:39.713Z,5.07
2018-06-16T06:04:06.671Z,3.80
2018-06-16T06:06:33.196Z,3.63
2018-06-16T06:08:59.675Z,3.90
2018-06-16T06:11:26.149Z,3.30
2018-06-16T06:13:52.965Z,3.65
2018-06-16T06:16:19.507Z,3.70
2018-06-16T06:18:46.007Z,3.37
2018-06-16T06:21:12.511Z,3.40
2018-06-16T06:23:39.001Z,3.20
2018-06-16T06:26:05.523Z,4.33
2018-06-16T06:28:31.993Z,3.92
2018-06-16T06:30:58.506Z,3.33
2018-06-16T06:33:25.129Z,3.70
2018-06-16T06:35:51.647Z,3.67
2018-06-16T06:38:18.177Z,3.40
2018-06-16T06:40:44.645Z,4.17
2018-06-16T06:43:11.135Z,3.80
2018-06-16T06:45:37.793Z,3.60
2018-06-16T06:48:04.312Z,4.17
2018-06-16T06:50:30.834Z,3.60
2018-06-16T06:52:57.309Z,3.60
2018-06-16T06:55:23.817Z,3.23
2018-06-16T06:57:50.383Z,3.70
2018-06-16T07:00:16.904Z,3.93
2018-06-16T07:02:43.453Z,3.70
2018-06-16T07:05:09.982Z,3.87
2018-06-16T07:07:36.501Z,3.72
2018-06-16T07:10:02.999Z,4.37
2018-06-16T07:12:29.495Z,4.53
2018-06-16T07:14:55.949Z,4.00
2018-06-16T07:17:22.490Z,3.70
2018-06-16T07:19:48.965Z,4.22
2018-06-16T07:22:15.749Z,4.43
2018-06-16T07:24:43.772Z,4.53
2018-06-16T07:27:10.250Z,4.22
2018-06-16T07:29:36.681Z,4.17
2018-06-16T07:32:03.684Z,3.70
2018-06-16T07:34:30.175Z,3.87
2018-06-16T07:36:56.685Z,4.10
2018-06-16T07:39:23.201Z,3.63
2018-06-16T07:41:49.689Z,4.13
2018-06-16T07:44:16.159Z,3.87
2018-06-16T07:46:42.654Z,3.67
2018-06-16T07:49:09.131Z,5.03
2018-06-16T07:51:35.630Z,4.30
2018-06-16T07:54:02.125Z,3.93
2018-06-16T07:56:28.613Z,4.10
2018-06-16T07:58:55.087Z,3.87
2018-06-16T08:01:21.573Z,3.50
2018-06-16T08:03:48.045Z,4.12
2018-06-16T08:06:14.551Z,4.50
2018-06-16T08:08:40.995Z,4.40
2018-06-16T08:11:07.450Z,3.90
2018-06-16T08:13:34.155Z,3.75
2018-06-16T08:16:00.587Z,4.12
2018-06-16T08:18:27.029Z,4.13
2018-06-16T08:20:53.512Z,3.70
2018-06-16T08:23:19.975Z,4.20
2018-06-16T08:25:46.453Z,3.47
2018-06-16T08:28:12.957Z,5.30
2018-06-16T08:30:39.569Z,3.97
2018-06-16T08:33:06.123Z,3.87
2018-06-16T08:35:32.593Z,3.37
2018-06-16T08:37:59.060Z,4.60
2018-06-16T08:40:25.552Z,4.70
2018-06-16T08:42:51.997Z,3.73
2018-06-16T08:45:18.479Z,3.87
2018-06-16T08:47:44.910Z,3.97
2018-06-16T08:50:11.348Z,4.20
2018-06-16T08:52:37.813Z,3.80
2018-06-16T08:55:04.322Z,3.75
2018-06-16T08:57:30.770Z,3.47
2018-06-16T08:59:57.236Z,4.27
2018-06-16T09:02:23.754Z,3.63
2018-06-16T09:04:50.276Z,3.95
2018-06-16T09:07:16.722Z,3.50
2018-06-16T09:09:43.169Z,3.80
2018-06-16T09:12:09.666Z,3.73
2018-06-16T09:14:36.178Z,3.83
2018-06-16T09:17:02.653Z,3.20
2018-06-16T09:19:29.134Z,3.67
2018-06-16T09:21:55.599Z,4.03
2018-06-16T09:24:22.050Z,3.75
2018-06-16T09:26:48.586Z,3.90
2018-06-16T09:29:15.061Z,3.70
2018-06-16T09:31:41.494Z,3.50
2018-06-16T09:34:07.956Z,3.67
2018-06-16T09:36:34.412Z,4.37
2018-06-16T09:39:00.917Z,3.90
2018-06-16T09:41:27.370Z,3.60
2018-06-16T09:43:53.854Z,4.10
2018-06-16T09:46:20.380Z,3.60
2018-06-16T09:48:46.901Z,3.70
2018-06-16T09:51:13.412Z,3.37
2018-06-16T09:53:39.895Z,3.77
2018-06-16T09:56:06.785Z,4.05
2018-06-16T09:58:34.041Z,3.57
2018-06-16T10:01:00.667Z,4.10
2018-06-16T10:03:27.229Z,3.70
2018-06-16T10:05:53.640Z,3.60
2018-06-16T10:08:20.240Z,3.58
2018-06-16T10:10:46.857Z,4.30
2018-06-16T10:13:13.322Z,3.70
2018-06-16T10:15:39.932Z,3.50
2018-06-16T10:18:06.386Z,3.63
2018-06-16T10:20:32.912Z,3.62
2018-06-16T10:22:59.369Z,3.75
2018-06-16T10:25:25.944Z,3.70
2018-06-16T10:27:52.407Z,5.33
2018-06-16T10:30:18.879Z,4.33
2018-06-16T10:32:45.355Z,3.87
2018-06-16T10:35:11.885Z,4.10
2018-06-16T10:37:38.411Z,4.17
2018-06-16T10:40:05.171Z,3.90
2018-06-16T10:42:31.796Z,4.93
2018-06-16T10:44:58.385Z,8.43
2018-06-16T10:47:24.864Z,10.77
2018-06-16T10:49:52.088Z,11.93
2018-06-16T10:52:18.591Z,9.10
2018-06-16T10:54:45.063Z,5.37
2018-06-16T10:57:11.569Z,4.53
2018-06-16T10:59:38.027Z,4.12
2018-06-16T11:02:04.800Z,4.13
2018-06-16T11:04:31.277Z,3.87
2018-06-16T11:06:57.796Z,3.87
2018-06-16T11:09:24.294Z,4.53
2018-06-16T11:11:51.496Z,3.83
2018-06-16T11:14:17.989Z,4.40
2018-06-16T11:16:44.480Z,4.60
2018-06-16T11:19:11.051Z,4.03
2018-06-16T11:21:37.510Z,3.83
2018-06-16T11:24:04.047Z,4.33
2018-06-16T11:26:30.549Z,4.43
2018-06-16T11:28:57.001Z,4.12
2018-06-16T11:31:23.475Z,4.00
2018-06-16T11:33:49.943Z,4.50
2018-06-16T11:36:16.467Z,4.60
2018-06-16T11:38:42.989Z,3.70
2018-06-16T11:41:09.536Z,4.08
2018-06-16T11:43:36.520Z,3.43
2018-06-16T11:46:03.011Z,4.28
2018-06-16T11:48:29.498Z,4.58
2018-06-16T11:50:56.055Z,4.37
2018-06-16T11:53:22.557Z,5.07
2018-06-16T11:55:49.042Z,4.10
2018-06-16T11:58:16.310Z,3.92
2018-06-16T12:00:42.844Z,3.77
2018-06-16T12:03:09.430Z,4.10
2018-06-16T12:05:35.854Z,3.73
2018-06-16T12:08:03.219Z,4.28
2018-06-16T12:10:33.743Z,4.37
2018-06-16T12:13:00.311Z,3.47
2018-06-16T12:15:26.883Z,3.87
2018-06-16T12:17:53.422Z,3.67
2018-06-16T12:20:22.963Z,3.70
2018-06-16T12:22:50.522Z,4.53
2018-06-16T12:25:17.030Z,4.20
2018-06-16T12:27:44.047Z,6.10
2018-06-16T12:30:10.532Z,3.80
2018-06-16T12:32:37.749Z,3.77
2018-06-16T12:35:04.207Z,3.30
2018-06-16T12:37:30.688Z,3.53
2018-06-16T12:39:57.158Z,4.30
2018-06-16T12:42:24.484Z,3.77
2018-06-16T12:44:50.966Z,4.10
2018-06-16T12:47:17.452Z,3.90
2018-06-16T12:49:43.924Z,3.72
2018-06-16T12:52:10.420Z,4.07
2018-06-16T12:54:36.952Z,3.60
2018-06-16T12:57:03.477Z,3.83
2018-06-16T12:59:29.952Z,3.40
2018-06-16T13:01:56.438Z,3.90
2018-06-16T13:04:22.940Z,3.77
2018-06-16T13:06:49.458Z,3.73
2018-06-16T13:09:15.961Z,3.80
2018-06-16T13:11:42.410Z,3.70
2018-06-16T13:14:08.924Z,3.73
2018-06-16T13:16:35.837Z,4.00
2018-06-16T13:19:02.310Z,3.70
2018-06-16T13:21:28.838Z,3.87
2018-06-16T13:23:55.342Z,3.63
2018-06-16T13:26:21.856Z,3.57
2018-06-16T13:28:48.423Z,4.00
2018-06-16T13:31:15.444Z,3.53
2018-06-16T13:33:41.939Z,3.80
2018-06-16T13:36:08.454Z,3.60
2018-06-16T13:38:34.955Z,3.33
2018-06-16T13:41:01.954Z,3.72
2018-06-16T13:43:28.553Z,3.80
2018-06-16T13:45:55.057Z,3.37
2018-06-16T13:48:21.617Z,4.70
2018-06-16T13:50:48.130Z,3.27
2018-06-16T13:53:14.597Z,3.43
2018-06-16T13:55:41.107Z,3.67
2018-06-16T13:58:07.623Z,3.17
2018-06-16T14:00:34.067Z,3.17
2018-06-16T14:03:00.662Z,3.43
2018-06-16T14:05:27.178Z,3.60
2018-06-16T14:07:53.750Z,3.43
2018-06-16T14:10:20.494Z,3.80
2018-06-16T14:12:47.095Z,3.27
2018-06-16T14:15:13.955Z,3.22
2018-06-16T14:17:40.549Z,3.50
2018-06-16T14:20:07.399Z,3.30
2018-06-16T14:22:34.114Z,3.17
2018-06-16T14:25:00.601Z,3.40
2018-06-16T14:27:27.070Z,3.17
2018-06-16T14:29:53.560Z,3.33
2018-06-16T14:32:20.392Z,3.37
2018-06-16T14:34:46.949Z,3.13
2018-06-16T14:37:13.454Z,3.20
2018-06-16T14:39:40.025Z,3.43
2018-06-16T14:42:06.645Z,2.97
2018-06-16T14:44:33.260Z,3.63
2018-06-16T14:46:59.833Z,3.47
2018-06-16T14:49:26.313Z,3.30
2018-06-16T14:51:52.777Z,4.10
2018-06-16T14:54:19.243Z,2.90
2018-06-16T14:56:45.719Z,3.40
2018-06-16T14:59:12.203Z,3.37
2018-06-16T15:01:38.723Z,3.90
2018-06-16T15:04:05.230Z,3.45
2018-06-16T15:06:31.740Z,2.90
2018-06-16T15:08:58.233Z,3.10
2018-06-16T15:11:24.723Z,3.00
2018-06-16T15:13:51.377Z,3.20
2018-06-16T15:16:17.841Z,3.10
2018-06-16T15:18:44.307Z,3.37
2018-06-16T15:21:11.307Z,3.00
2018-06-16T15:23:38.282Z,3.37
2018-06-16T15:26:04.775Z,3.83
2018-06-16T15:28:31.851Z,2.87
2018-06-16T15:30:58.344Z,3.20
2018-06-16T15:33:24.941Z,3.30
2018-06-16T15:35:51.454Z,3.27
2018-06-16T15:38:17.995Z,2.90
2018-06-16T15:40:44.504Z,3.10
2018-06-16T15:43:11.213Z,3.40
2018-06-16T15:45:37.715Z,3.03
2018-06-16T15:48:04.199Z,3.00
2018-06-16T15:50:30.674Z,3.03
2018-06-16T15:52:57.240Z,3.35
2018-06-16T15:55:23.728Z,3.13
2018-06-16T15:57:50.226Z,3.07
2018-06-16T16:00:16.766Z,3.35
2018-06-16T16:02:43.252Z,2.87
2018-06-16T16:05:09.719Z,3.20
2018-06-16T16:07:36.272Z,3.23
2018-06-16T16:10:02.781Z,3.13
2018-06-16T16:12:30.110Z,4.08
2018-06-16T16:14:56.620Z,2.90
2018-06-16T16:17:23.237Z,3.17
2018-06-16T16:19:49.730Z,3.43
2018-06-16T16:22:16.222Z,3.30
2018-06-16T16:24:43.007Z,3.02
2018-06-16T16:27:10.406Z,3.40
2018-06-16T16:29:36.930Z,3.50
2018-06-16T16:32:03.396Z,3.30
2018-06-16T16:34:29.881Z,3.70
2018-06-16T16:36:56.336Z,3.50
2018-06-16T16:39:22.818Z,3.97
2018-06-16T16:41:49.291Z,3.97
2018-06-16T16:44:20.123Z,3.63
2018-06-16T16:46:46.596Z,3.60
2018-06-16T16:49:13.052Z,4.43
2018-06-16T16:51:39.575Z,4.58
2018-06-16T16:54:07.118Z,4.40
2018-06-16T16:56:33.589Z,3.50
2018-06-16T16:59:00.114Z,3.50
2018-06-16T17:01:26.590Z,3.15
2018-06-16T17:03:53.118Z,3.50
2018-06-16T17:06:19.656Z,3.50
2018-06-16T17:08:46.258Z,3.50
2018-06-16T17:11:12.763Z,3.43
2018-06-16T17:13:39.218Z,3.07
2018-06-16T17:16:05.688Z,3.37
2018-06-16T17:18:32.210Z,3.23
2018-06-16T17:20:58.711Z,3.30
2018-06-16T17:23:25.166Z,3.33
2018-06-16T17:25:51.642Z,3.17
2018-06-16T17:28:18.141Z,3.30
2018-06-16T17:30:44.598Z,3.43
2018-06-16T17:33:11.085Z,3.80
2018-06-16T17:35:37.707Z,3.10
2018-06-16T17:38:04.184Z,3.20
2018-06-16T17:40:30.690Z,3.50
2018-06-16T17:42:57.225Z,3.40
2018-06-16T17:45:23.715Z,3.02
2018-06-16T17:47:50.247Z,2.80
2018-06-16T17:50:17.375Z,3.20
2018-06-16T17:52:44.000Z,3.30
2018-06-16T17:55:10.468Z,3.10
2018-06-16T17:57:36.991Z,3.70
2018-06-16T18:00:03.477Z,3.63
2018-06-16T18:02:30.926Z,3.13
2018-06-16T18:04:57.556Z,3.02
2018-06-16T18:07:24.018Z,2.92
2018-06-16T18:09:50.530Z,3.43
2018-06-16T18:12:17.047Z,3.00
2018-06-16T18:14:43.539Z,3.00
2018-06-16T18:17:10.042Z,3.27
2018-06-16T18:19:36.653Z,3.02
2018-06-16T18:22:03.129Z,3.00
2018-06-16T18:24:29.632Z,3.50
2018-06-16T18:26:56.082Z,3.20
2018-06-16T18:29:22.569Z,2.73
2018-06-16T18:31:49.068Z,3.10
2018-06-16T18:34:15.594Z,2.97
2018-06-16T18:36:42.067Z,3.20
2018-06-16T18:39:09.747Z,3.37
2018-06-16T18:41:36.221Z,3.10
2018-06-16T18:44:03.366Z,3.22
2018-06-16T18:46:29.847Z,3.43
2018-06-16T18:48:56.369Z,3.00
2018-06-16T18:51:22.876Z,3.02
2018-06-16T18:53:49.363Z,3.25
2018-06-16T18:56:15.894Z,2.73
2018-06-16T18:58:42.531Z,2.90
2018-06-16T19:01:09.046Z,3.03
2018-06-16T19:03:35.524Z,3.00
2018-06-16T19:06:01.994Z,3.22
2018-06-16T19:08:28.563Z,3.23
2018-06-16T19:10:55.197Z,3.37
2018-06-16T19:13:21.690Z,3.17
2018-06-16T19:15:48.227Z,3.00
2018-06-16T19:18:15.356Z,2.90
2018-06-16T19:20:41.910Z,2.80
2018-06-16T19:23:08.394Z,3.20
2018-06-16T19:25:34.831Z,2.97
2018-06-16T19:28:01.313Z,3.33
2018-06-16T19:30:27.816Z,2.97
2018-06-16T19:32:54.409Z,2.80
2018-06-16T19:35:20.889Z,2.87
2018-06-16T19:37:47.864Z,2.97
2018-06-16T19:40:14.359Z,2.90
2018-06-16T19:42:40.886Z,3.00
2018-06-16T19:45:07.404Z,2.90
2018-06-16T19:47:33.897Z,2.80
2018-06-16T19:50:00.395Z,2.97
2018-06-16T19:52:27.556Z,2.87
2018-06-16T19:54:54.079Z,2.80
2018-06-16T19:57:20.665Z,2.80
2018-06-16T19:59:47.370Z,3.20
2018-06-16T20:02:13.867Z,2.90
2018-06-16T20:04:40.364Z,2.67
2018-06-16T20:07:07.372Z,2.60
2018-06-16T20:09:33.804Z,2.90
2018-06-16T20:12:00.323Z,3.00
2018-06-16T20:14:26.798Z,3.20
2018-06-16T20:16:53.317Z,2.70
2018-06-16T20:19:19.803Z,2.70
2018-06-16T20:21:46.294Z,2.90
2018-06-16T20:24:12.789Z,3.00
2018-06-16T20:26:39.773Z,2.80
2018-06-16T20:29:06.338Z,3.00
2018-06-16T20:31:32.797Z,2.77
2018-06-16T20:33:59.316Z,3.10
2018-06-16T20:36:25.830Z,2.75
2018-06-16T20:38:52.317Z,3.00
2018-06-16T20:41:18.839Z,3.33
2018-06-16T20:43:45.326Z,2.87
2018-06-16T20:46:11.855Z,2.80
2018-06-16T20:48:38.356Z,2.80
2018-06-16T20:51:04.834Z,2.70
2018-06-16T20:53:31.319Z,3.03
2018-06-16T20:55:57.892Z,2.83
2018-06-16T20:58:24.395Z,2.83
2018-06-16T21:00:50.874Z,3.00
2018-06-16T21:03:17.908Z,2.90
2018-06-16T21:05:44.397Z,2.90
2018-06-16T21:08:10.868Z,2.63
2018-06-16T21:10:37.900Z,3.00
2018-06-16T21:13:04.401Z,3.17
2018-06-16T21:15:30.858Z,2.47
2018-06-16T21:17:57.383Z,2.90
2018-06-16T21:20:23.880Z,2.83
2018-06-16T21:22:50.628Z,3.00
2018-06-16T21:25:17.094Z,3.10
2018-06-16T21:27:43.639Z,2.70
2018-06-16T21:30:10.144Z,2.58
2018-06-16T21:32:36.614Z,2.80
2018-06-16T21:35:03.103Z,2.60
2018-06-16T21:37:29.599Z,2.90
2018-06-16T21:39:56.104Z,3.00
2018-06-16T21:42:22.758Z,3.58
2018-06-16T21:44:49.350Z,3.10
2018-06-16T21:47:15.783Z,2.83
2018-06-16T21:49:42.293Z,2.80
2018-06-16T21:52:08.848Z,3.03
2018-06-16T21:54:35.305Z,3.00
2018-06-16T21:57:01.811Z,2.80
2018-06-16T21:59:28.297Z,3.03
2018-06-16T22:01:54.749Z,2.57
2018-06-16T22:04:21.206Z,3.10
2018-06-16T22:06:47.689Z,2.77
2018-06-16T22:09:14.176Z,2.83
2018-06-16T22:11:40.648Z,2.40
2018-06-16T22:14:07.135Z,2.60
2018-06-16T22:16:33.590Z,2.93
2018-06-16T22:19:00.090Z,2.70
2018-06-16T22:21:27.363Z,3.10
2018-06-16T22:23:53.867Z,2.70
2018-06-16T22:26:20.361Z,2.70
2018-06-16T22:28:46.853Z,2.67
2018-06-16T22:31:13.308Z,2.37
2018-06-16T22:33:39.790Z,2.77
2018-06-16T22:36:06.264Z,2.60
2018-06-16T22:38:32.811Z,2.50
2018-06-16T22:40:59.281Z,2.60
2018-06-16T22:43:25.740Z,2.80
2018-06-16T22:45:52.191Z,2.53
2018-06-16T22:48:18.650Z,3.40
2018-06-16T22:50:45.797Z,2.77
2018-06-16T22:53:12.310Z,2.70
2018-06-16T22:55:38.771Z,2.80
2018-06-16T22:58:05.232Z,2.73
2018-06-16T23:00:31.815Z,3.00
2018-06-16T23:03:00.996Z,2.90
2018-06-16T23:05:27.486Z,2.87
2018-06-16T23:07:54.171Z,2.70
2018-06-16T23:10:20.679Z,2.70
2018-06-16T23:12:47.147Z,2.70
2018-06-16T23:15:14.075Z,2.90
2018-06-16T23:17:40.640Z,2.70
2018-06-16T23:20:07.115Z,2.63
2018-06-16T23:22:33.840Z,2.90
2018-06-16T23:25:00.341Z,2.63
2018-06-16T23:27:26.808Z,2.50
2018-06-16T23:29:53.351Z,2.57
2018-06-16T23:32:19.983Z,2.67
2018-06-16T23:34:46.521Z,3.10
2018-06-16T23:37:13.011Z,3.00
2018-06-16T23:39:40.043Z,2.60
2018-06-16T23:42:06.645Z,2.53
2018-06-16T23:44:33.150Z,3.00
2018-06-16T23:46:59.627Z,2.70
2018-06-16T23:49:26.140Z,2.80
2018-06-16T23:51:52.615Z,2.77
2018-06-16T23:54:19.090Z,2.72
2018-06-16T23:56:45.583Z,2.80
2018-06-16T23:59:12.007Z,2.70
